sensor_id;sensor_type;location;lat;lon;timestamp;pressure;altitude;pressure_sealevel;temperature
19040;BMP180;9652;49.014;12.052;2024-03-17T00:01:42;98500.00;;;9.50
19040;BMP180;9652;49.014;12.052;2024-03-17T00:04:08;98493.00;;;9.40
19040;BMP180;9652;49.014;12.052;2024-03-17T00:06:37;98500.00;;;9.40
19040;BMP180;9652;49.014;12.052;2024-03-17T00:09:03;98501.00;;;9.30
19040;BMP180;9652;49.014;12.052;2024-03-17T00:11:32;98494.00;;;9.30
19040;BMP180;9652;49.014;12.052;2024-03-17T00:13:59;98496.00;;;9.30
19040;BMP180;9652;49.014;12.052;2024-03-17T00:16:26;98514.00;;;9.20
19040;BMP180;9652;49.014;12.052;2024-03-17T00:18:53;98497.00;;;9.20
19040;BMP180;9652;49.014;12.052;2024-03-17T00:21:21;98506.00;;;9.10
19040;BMP180;9652;49.014;12.052;2024-03-17T00:23:49;98508.00;;;9.10
19040;BMP180;9652;49.014;12.052;2024-03-17T00:26:16;98508.00;;;9.10
19040;BMP180;9652;49.014;12.052;2024-03-17T00:28:42;98513.00;;;9.10
19040;BMP180;9652;49.014;12.052;2024-03-17T00:31:12;98476.00;;;9.00
19040;BMP180;9652;49.014;12.052;2024-03-17T00:33:40;98503.00;;;9.00
19040;BMP180;9652;49.014;12.052;2024-03-17T00:36:07;98492.00;;;8.90
19040;BMP180;9652;49.014;12.052;2024-03-17T00:38:33;98506.00;;;8.90
19040;BMP180;9652;49.014;12.052;2024-03-17T00:41:04;98457.00;;;8.90
19040;BMP180;9652;49.014;12.052;2024-03-17T00:43:30;98498.00;;;8.90
19040;BMP180;9652;49.014;12.052;2024-03-17T00:45:57;98496.00;;;8.90
19040;BMP180;9652;49.014;12.052;2024-03-17T00:48:24;98501.00;;;8.80
19040;BMP180;9652;49.014;12.052;2024-03-17T00:50:56;98503.00;;;8.80
19040;BMP180;9652;49.014;12.052;2024-03-17T00:53:22;98500.00;;;8.80
19040;BMP180;9652;49.014;12.052;2024-03-17T00:55:52;98453.00;;;8.80
19040;BMP180;9652;49.014;12.052;2024-03-17T00:58:20;98499.00;;;8.70
19040;BMP180;9652;49.014;12.052;2024-03-17T01:00:47;98506.00;;;8.70
19040;BMP180;9652;49.014;12.052;2024-03-17T01:03:14;98516.00;;;8.70
19040;BMP180;9652;49.014;12.052;2024-03-17T01:05:41;98503.00;;;8.70
19040;BMP180;9652;49.014;12.052;2024-03-17T01:08:09;98511.00;;;8.70
19040;BMP180;9652;49.014;12.052;2024-03-17T01:10:38;98516.00;;;8.70
19040;BMP180;9652;49.014;12.052;2024-03-17T01:13:05;98523.00;;;8.70
19040;BMP180;9652;49.014;12.052;2024-03-17T01:15:36;98528.00;;;8.70
19040;BMP180;9652;49.014;12.052;2024-03-17T01:18:04;98528.00;;;8.70
19040;BMP180;9652;49.014;12.052;2024-03-17T01:20:31;98509.00;;;8.70
19040;BMP180;9652;49.014;12.052;2024-03-17T01:22:59;98506.00;;;8.70
19040;BMP180;9652;49.014;12.052;2024-03-17T01:25:25;98507.00;;;8.70
19040;BMP180;9652;49.014;12.052;2024-03-17T01:27:53;98491.00;;;8.70
19040;BMP180;9652;49.014;12.052;2024-03-17T01:30:20;98508.00;;;8.70
19040;BMP180;9652;49.014;12.052;2024-03-17T01:32:48;98503.00;;;8.70
19040;BMP180;9652;49.014;12.052;2024-03-17T01:35:16;98503.00;;;8.10
19040;BMP180;9652;49.014;12.052;2024-03-17T01:37:42;98488.00;;;8.40
19040;BMP180;9652;49.014;12.052;2024-03-17T01:40:11;98508.00;;;8.60
19040;BMP180;9652;49.014;12.052;2024-03-17T01:42:38;98488.00;;;8.60
19040;BMP180;9652;49.014;12.052;2024-03-17T01:45:25;98497.00;;;8.60
19040;BMP180;9652;49.014;12.052;2024-03-17T01:47:55;98507.00;;;8.60
19040;BMP180;9652;49.014;12.052;2024-03-17T01:50:25;98510.00;;;8.50
19040;BMP180;9652;49.014;12.052;2024-03-17T01:52:55;98513.00;;;8.50
19040;BMP180;9652;49.014;12.052;2024-03-17T01:55:26;98510.00;;;8.50
19040;BMP180;9652;49.014;12.052;2024-03-17T01:57:53;98503.00;;;8.50
19040;BMP180;9652;49.014;12.052;2024-03-17T02:00:21;98503.00;;;8.50
19040;BMP180;9652;49.014;12.052;2024-03-17T02:02:48;98491.00;;;8.50
19040;BMP180;9652;49.014;12.052;2024-03-17T02:05:18;98499.00;;;8.50
19040;BMP180;9652;49.014;12.052;2024-03-17T02:07:44;98512.00;;;8.50
19040;BMP180;9652;49.014;12.052;2024-03-17T02:10:11;98484.00;;;8.50
19040;BMP180;9652;49.014;12.052;2024-03-17T02:12:38;98468.00;;;8.50
19040;BMP180;9652;49.014;12.052;2024-03-17T02:15:06;98491.00;;;8.40
19040;BMP180;9652;49.014;12.052;2024-03-17T02:17:33;98495.00;;;8.40
19040;BMP180;9652;49.014;12.052;2024-03-17T02:20:01;98492.00;;;8.40
19040;BMP180;9652;49.014;12.052;2024-03-17T02:22:28;98489.00;;;8.40
19040;BMP180;9652;49.014;12.052;2024-03-17T02:24:56;98507.00;;;8.40
19040;BMP180;9652;49.014;12.052;2024-03-17T02:27:22;98505.00;;;8.40
19040;BMP180;9652;49.014;12.052;2024-03-17T02:29:49;98495.00;;;8.40
19040;BMP180;9652;49.014;12.052;2024-03-17T02:32:15;98500.00;;;8.40
19040;BMP180;9652;49.014;12.052;2024-03-17T02:34:43;98481.00;;;8.40
19040;BMP180;9652;49.014;12.052;2024-03-17T02:37:10;98488.00;;;8.50
19040;BMP180;9652;49.014;12.052;2024-03-17T02:39:39;98494.00;;;8.50
19040;BMP180;9652;49.014;12.052;2024-03-17T02:42:07;98462.00;;;8.40
19040;BMP180;9652;49.014;12.052;2024-03-17T02:44:37;98419.00;;;8.50
19040;BMP180;9652;49.014;12.052;2024-03-17T02:47:05;98477.00;;;8.50
19040;BMP180;9652;49.014;12.052;2024-03-17T02:49:34;98449.00;;;8.60
19040;BMP180;9652;49.014;12.052;2024-03-17T02:52:03;98477.00;;;8.60
19040;BMP180;9652;49.014;12.052;2024-03-17T02:54:31;98477.00;;;8.50
19040;BMP180;9652;49.014;12.052;2024-03-17T02:57:02;98440.00;;;8.50
19040;BMP180;9652;49.014;12.052;2024-03-17T02:59:29;98468.00;;;8.50
19040;BMP180;9652;49.014;12.052;2024-03-17T03:01:57;98455.00;;;8.50
19040;BMP180;9652;49.014;12.052;2024-03-17T03:04:25;98464.00;;;8.40
19040;BMP180;9652;49.014;12.052;2024-03-17T03:06:52;98461.00;;;8.40
19040;BMP180;9652;49.014;12.052;2024-03-17T03:09:19;98443.00;;;8.30
19040;BMP180;9652;49.014;12.052;2024-03-17T03:11:51;98467.00;;;8.30
19040;BMP180;9652;49.014;12.052;2024-03-17T03:14:20;98411.00;;;8.20
19040;BMP180;9652;49.014;12.052;2024-03-17T03:16:48;98471.00;;;8.20
19040;BMP180;9652;49.014;12.052;2024-03-17T03:19:16;98397.00;;;8.20
19040;BMP180;9652;49.014;12.052;2024-03-17T03:21:45;98468.00;;;8.20
19040;BMP180;9652;49.014;12.052;2024-03-17T03:24:14;98457.00;;;8.10
19040;BMP180;9652;49.014;12.052;2024-03-17T03:26:41;98451.00;;;8.10
19040;BMP180;9652;49.014;12.052;2024-03-17T03:29:09;98475.00;;;8.00
19040;BMP180;9652;49.014;12.052;2024-03-17T03:31:38;98472.00;;;7.90
19040;BMP180;9652;49.014;12.052;2024-03-17T03:34:06;98395.00;;;7.90
19040;BMP180;9652;49.014;12.052;2024-03-17T03:36:35;98465.00;;;7.80
19040;BMP180;9652;49.014;12.052;2024-03-17T03:39:03;98454.00;;;7.80
19040;BMP180;9652;49.014;12.052;2024-03-17T03:41:32;98477.00;;;7.80
19040;BMP180;9652;49.014;12.052;2024-03-17T03:43:59;98464.00;;;7.70
19040;BMP180;9652;49.014;12.052;2024-03-17T03:46:26;98457.00;;;7.70
19040;BMP180;9652;49.014;12.052;2024-03-17T03:48:55;98443.00;;;7.70
19040;BMP180;9652;49.014;12.052;2024-03-17T03:51:22;98463.00;;;7.60
19040;BMP180;9652;49.014;12.052;2024-03-17T03:53:51;98452.00;;;7.60
19040;BMP180;9652;49.014;12.052;2024-03-17T03:56:18;98469.00;;;7.60
19040;BMP180;9652;49.014;12.052;2024-03-17T03:58:46;98475.00;;;7.50
19040;BMP180;9652;49.014;12.052;2024-03-17T04:01:13;98472.00;;;7.50
19040;BMP180;9652;49.014;12.052;2024-03-17T04:03:47;98460.00;;;7.50
19040;BMP180;9652;49.014;12.052;2024-03-17T04:06:16;98469.00;;;7.50
19040;BMP180;9652;49.014;12.052;2024-03-17T04:08:43;98433.00;;;7.40
19040;BMP180;9652;49.014;12.052;2024-03-17T04:11:10;98452.00;;;7.40
19040;BMP180;9652;49.014;12.052;2024-03-17T04:13:38;98472.00;;;7.40
19040;BMP180;9652;49.014;12.052;2024-03-17T04:16:07;98470.00;;;7.30
19040;BMP180;9652;49.014;12.052;2024-03-17T04:18:34;98475.00;;;7.30
19040;BMP180;9652;49.014;12.052;2024-03-17T04:21:03;98474.00;;;7.30
19040;BMP180;9652;49.014;12.052;2024-03-17T04:23:32;98468.00;;;7.40
19040;BMP180;9652;49.014;12.052;2024-03-17T04:26:00;98467.00;;;7.30
19040;BMP180;9652;49.014;12.052;2024-03-17T04:28:29;98478.00;;;7.40
19040;BMP180;9652;49.014;12.052;2024-03-17T04:31:03;98496.00;;;7.40
19040;BMP180;9652;49.014;12.052;2024-03-17T04:33:32;98435.00;;;7.50
19040;BMP180;9652;49.014;12.052;2024-03-17T04:36:00;98468.00;;;7.50
19040;BMP180;9652;49.014;12.052;2024-03-17T04:38:28;98472.00;;;7.60
19040;BMP180;9652;49.014;12.052;2024-03-17T04:40:56;98457.00;;;7.60
19040;BMP180;9652;49.014;12.052;2024-03-17T04:43:31;98474.00;;;7.70
19040;BMP180;9652;49.014;12.052;2024-03-17T04:46:03;98395.00;;;7.70
19040;BMP180;9652;49.014;12.052;2024-03-17T04:48:32;98442.00;;;7.70
19040;BMP180;9652;49.014;12.052;2024-03-17T04:51:00;98446.00;;;7.70
19040;BMP180;9652;49.014;12.052;2024-03-17T04:53:27;98471.00;;;7.80
19040;BMP180;9652;49.014;12.052;2024-03-17T04:56:01;98478.00;;;7.80
19040;BMP180;9652;49.014;12.052;2024-03-17T04:58:30;98479.00;;;7.80
19040;BMP180;9652;49.014;12.052;2024-03-17T05:00:57;98486.00;;;7.80
19040;BMP180;9652;49.014;12.052;2024-03-17T05:03:29;98465.00;;;7.80
19040;BMP180;9652;49.014;12.052;2024-03-17T05:06:00;98481.00;;;7.80
19040;BMP180;9652;49.014;12.052;2024-03-17T05:08:28;98460.00;;;7.90
19040;BMP180;9652;49.014;12.052;2024-03-17T05:11:01;98487.00;;;7.90
19040;BMP180;9652;49.014;12.052;2024-03-17T05:13:31;98481.00;;;7.90
19040;BMP180;9652;49.014;12.052;2024-03-17T05:16:00;98464.00;;;7.90
19040;BMP180;9652;49.014;12.052;2024-03-17T05:18:27;98493.00;;;7.90
19040;BMP180;9652;49.014;12.052;2024-03-17T05:20:58;98418.00;;;8.00
19040;BMP180;9652;49.014;12.052;2024-03-17T05:23:27;98486.00;;;8.00
19040;BMP180;9652;49.014;12.052;2024-03-17T05:25:56;98453.00;;;8.00
19040;BMP180;9652;49.014;12.052;2024-03-17T05:28:26;98483.00;;;8.10
19040;BMP180;9652;49.014;12.052;2024-03-17T05:30:54;98491.00;;;8.10
19040;BMP180;9652;49.014;12.052;2024-03-17T05:33:24;98486.00;;;8.10
19040;BMP180;9652;49.014;12.052;2024-03-17T05:35:53;98446.00;;;8.20
19040;BMP180;9652;49.014;12.052;2024-03-17T05:38:21;98516.00;;;8.20
19040;BMP180;9652;49.014;12.052;2024-03-17T05:40:56;98507.00;;;8.20
19040;BMP180;9652;49.014;12.052;2024-03-17T05:43:26;98514.00;;;8.20
19040;BMP180;9652;49.014;12.052;2024-03-17T05:45:56;98512.00;;;8.30
19040;BMP180;9652;49.014;12.052;2024-03-17T05:48:24;98526.00;;;8.30
19040;BMP180;9652;49.014;12.052;2024-03-17T05:50:51;98506.00;;;8.30
19040;BMP180;9652;49.014;12.052;2024-03-17T05:53:19;98498.00;;;8.40
19040;BMP180;9652;49.014;12.052;2024-03-17T05:55:46;98500.00;;;8.40
19040;BMP180;9652;49.014;12.052;2024-03-17T05:58:13;98497.00;;;8.40
19040;BMP180;9652;49.014;12.052;2024-03-17T06:00:42;98499.00;;;8.50
19040;BMP180;9652;49.014;12.052;2024-03-17T06:03:10;98498.00;;;8.50
19040;BMP180;9652;49.014;12.052;2024-03-17T06:05:39;98419.00;;;8.60
19040;BMP180;9652;49.014;12.052;2024-03-17T06:08:07;98498.00;;;8.60
19040;BMP180;9652;49.014;12.052;2024-03-17T06:10:38;98439.00;;;8.60
19040;BMP180;9652;49.014;12.052;2024-03-17T06:13:06;98491.00;;;8.70
19040;BMP180;9652;49.014;12.052;2024-03-17T06:15:33;98501.00;;;8.70
19040;BMP180;9652;49.014;12.052;2024-03-17T06:18:02;98511.00;;;8.80
19040;BMP180;9652;49.014;12.052;2024-03-17T06:20:30;98496.00;;;8.80
19040;BMP180;9652;49.014;12.052;2024-03-17T06:22:58;98496.00;;;8.90
19040;BMP180;9652;49.014;12.052;2024-03-17T06:25:25;98478.00;;;8.90
19040;BMP180;9652;49.014;12.052;2024-03-17T06:27:52;98509.00;;;9.00
19040;BMP180;9652;49.014;12.052;2024-03-17T06:30:20;98508.00;;;9.00
19040;BMP180;9652;49.014;12.052;2024-03-17T06:32:47;98510.00;;;9.10
19040;BMP180;9652;49.014;12.052;2024-03-17T06:35:16;98432.00;;;9.10
19040;BMP180;9652;49.014;12.052;2024-03-17T06:37:44;98496.00;;;9.20
19040;BMP180;9652;49.014;12.052;2024-03-17T06:40:14;98478.00;;;9.20
19040;BMP180;9652;49.014;12.052;2024-03-17T06:42:42;98511.00;;;9.30
19040;BMP180;9652;49.014;12.052;2024-03-17T06:45:09;98514.00;;;9.30
19040;BMP180;9652;49.014;12.052;2024-03-17T06:47:37;98484.00;;;9.40
19040;BMP180;9652;49.014;12.052;2024-03-17T06:50:07;98502.00;;;9.40
19040;BMP180;9652;49.014;12.052;2024-03-17T06:52:37;98510.00;;;9.50
19040;BMP180;9652;49.014;12.052;2024-03-17T06:55:05;98484.00;;;9.50
19040;BMP180;9652;49.014;12.052;2024-03-17T06:57:32;98472.00;;;9.60
19040;BMP180;9652;49.014;12.052;2024-03-17T07:00:00;98477.00;;;9.60
19040;BMP180;9652;49.014;12.052;2024-03-17T07:02:27;98472.00;;;9.70
19040;BMP180;9652;49.014;12.052;2024-03-17T07:04:55;98506.00;;;9.70
19040;BMP180;9652;49.014;12.052;2024-03-17T07:07:24;98413.00;;;9.80
19040;BMP180;9652;49.014;12.052;2024-03-17T07:09:54;98503.00;;;9.90
19040;BMP180;9652;49.014;12.052;2024-03-17T07:12:21;98511.00;;;10.00
19040;BMP180;9652;49.014;12.052;2024-03-17T07:14:50;98523.00;;;10.10
19040;BMP180;9652;49.014;12.052;2024-03-17T07:17:17;98492.00;;;10.10
19040;BMP180;9652;49.014;12.052;2024-03-17T07:19:44;98510.00;;;10.20
19040;BMP180;9652;49.014;12.052;2024-03-17T07:22:12;98515.00;;;10.20
19040;BMP180;9652;49.014;12.052;2024-03-17T07:24:39;98539.00;;;10.30
19040;BMP180;9652;49.014;12.052;2024-03-17T07:27:07;98449.00;;;10.40
19040;BMP180;9652;49.014;12.052;2024-03-17T07:29:38;98530.00;;;10.40
19040;BMP180;9652;49.014;12.052;2024-03-17T07:32:06;98516.00;;;10.50
19040;BMP180;9652;49.014;12.052;2024-03-17T07:34:33;98526.00;;;10.60
19040;BMP180;9652;49.014;12.052;2024-03-17T07:37:01;98540.00;;;10.70
19040;BMP180;9652;49.014;12.052;2024-03-17T07:39:29;98527.00;;;10.80
19040;BMP180;9652;49.014;12.052;2024-03-17T07:41:58;98518.00;;;10.80
19040;BMP180;9652;49.014;12.052;2024-03-17T07:44:27;98499.00;;;10.90
19040;BMP180;9652;49.014;12.052;2024-03-17T07:46:59;98512.00;;;11.00
19040;BMP180;9652;49.014;12.052;2024-03-17T07:49:26;98512.00;;;11.00
19040;BMP180;9652;49.014;12.052;2024-03-17T07:51:53;98500.00;;;11.10
19040;BMP180;9652;49.014;12.052;2024-03-17T07:54:20;98488.00;;;11.10
19040;BMP180;9652;49.014;12.052;2024-03-17T07:56:47;98527.00;;;11.10
19040;BMP180;9652;49.014;12.052;2024-03-17T07:59:14;98477.00;;;11.20
19040;BMP180;9652;49.014;12.052;2024-03-17T08:01:45;98520.00;;;11.30
19040;BMP180;9652;49.014;12.052;2024-03-17T08:04:12;98515.00;;;11.30
19040;BMP180;9652;49.014;12.052;2024-03-17T08:06:39;98491.00;;;11.40
19040;BMP180;9652;49.014;12.052;2024-03-17T08:09:07;98481.00;;;11.50
19040;BMP180;9652;49.014;12.052;2024-03-17T08:11:35;98509.00;;;11.60
19040;BMP180;9652;49.014;12.052;2024-03-17T08:14:02;98477.00;;;11.70
19040;BMP180;9652;49.014;12.052;2024-03-17T08:16:30;98464.00;;;11.70
19040;BMP180;9652;49.014;12.052;2024-03-17T08:18:58;98503.00;;;11.80
19040;BMP180;9652;49.014;12.052;2024-03-17T08:21:25;98491.00;;;11.90
19040;BMP180;9652;49.014;12.052;2024-03-17T08:23:55;98489.00;;;12.00
19040;BMP180;9652;49.014;12.052;2024-03-17T08:26:22;98487.00;;;12.10
19040;BMP180;9652;49.014;12.052;2024-03-17T08:28:49;98467.00;;;12.10
19040;BMP180;9652;49.014;12.052;2024-03-17T08:31:17;98489.00;;;12.20
19040;BMP180;9652;49.014;12.052;2024-03-17T08:33:44;98488.00;;;12.20
19040;BMP180;9652;49.014;12.052;2024-03-17T08:36:17;98494.00;;;12.30
19040;BMP180;9652;49.014;12.052;2024-03-17T08:38:45;98469.00;;;12.30
19040;BMP180;9652;49.014;12.052;2024-03-17T08:41:14;98490.00;;;12.50
19040;BMP180;9652;49.014;12.052;2024-03-17T08:43:41;98481.00;;;12.60
19040;BMP180;9652;49.014;12.052;2024-03-17T08:46:10;98476.00;;;12.70
19040;BMP180;9652;49.014;12.052;2024-03-17T08:48:40;98482.00;;;12.90
19040;BMP180;9652;49.014;12.052;2024-03-17T08:51:09;98474.00;;;13.00
19040;BMP180;9652;49.014;12.052;2024-03-17T08:53:38;98481.00;;;13.10
19040;BMP180;9652;49.014;12.052;2024-03-17T08:56:06;98484.00;;;13.30
19040;BMP180;9652;49.014;12.052;2024-03-17T08:58:34;98447.00;;;13.40
19040;BMP180;9652;49.014;12.052;2024-03-17T09:01:05;98488.00;;;13.50
19040;BMP180;9652;49.014;12.052;2024-03-17T09:03:34;98483.00;;;13.60
19040;BMP180;9652;49.014;12.052;2024-03-17T09:06:01;98471.00;;;13.60
19040;BMP180;9652;49.014;12.052;2024-03-17T09:08:31;98481.00;;;13.70
19040;BMP180;9652;49.014;12.052;2024-03-17T09:11:00;98404.00;;;13.80
19040;BMP180;9652;49.014;12.052;2024-03-17T09:13:28;98460.00;;;13.90
19040;BMP180;9652;49.014;12.052;2024-03-17T09:15:57;98440.00;;;13.90
19040;BMP180;9652;49.014;12.052;2024-03-17T09:18:26;98464.00;;;13.90
19040;BMP180;9652;49.014;12.052;2024-03-17T09:21:00;98463.00;;;13.90
19040;BMP180;9652;49.014;12.052;2024-03-17T09:23:29;98462.00;;;13.90
19040;BMP180;9652;49.014;12.052;2024-03-17T09:26:00;98451.00;;;13.90
19040;BMP180;9652;49.014;12.052;2024-03-17T09:28:29;98463.00;;;13.90
19040;BMP180;9652;49.014;12.052;2024-03-17T09:30:57;98463.00;;;13.90
19040;BMP180;9652;49.014;12.052;2024-03-17T09:33:26;98460.00;;;13.70
19040;BMP180;9652;49.014;12.052;2024-03-17T09:35:57;98417.00;;;13.90
19040;BMP180;9652;49.014;12.052;2024-03-17T09:38:26;98457.00;;;13.90
19040;BMP180;9652;49.014;12.052;2024-03-17T09:40:54;98463.00;;;13.90
19040;BMP180;9652;49.014;12.052;2024-03-17T09:43:25;98429.00;;;13.90
19040;BMP180;9652;49.014;12.052;2024-03-17T09:45:53;98443.00;;;13.80
19040;BMP180;9652;49.014;12.052;2024-03-17T09:48:24;98424.00;;;13.80
19040;BMP180;9652;49.014;12.052;2024-03-17T09:50:55;98442.00;;;13.80
19040;BMP180;9652;49.014;12.052;2024-03-17T09:53:26;98434.00;;;13.80
19040;BMP180;9652;49.014;12.052;2024-03-17T09:56:01;98406.00;;;13.90
19040;BMP180;9652;49.014;12.052;2024-03-17T09:58:31;98383.00;;;13.90
19040;BMP180;9652;49.014;12.052;2024-03-17T10:00:59;98424.00;;;13.90
19040;BMP180;9652;49.014;12.052;2024-03-17T10:03:41;98437.00;;;13.90
19040;BMP180;9652;49.014;12.052;2024-03-17T10:06:11;98391.00;;;13.70
19040;BMP180;9652;49.014;12.052;2024-03-17T10:08:43;98436.00;;;14.00
19040;BMP180;9652;49.014;12.052;2024-03-17T10:11:11;98432.00;;;14.10
19040;BMP180;9652;49.014;12.052;2024-03-17T10:13:40;98432.00;;;14.10
19040;BMP180;9652;49.014;12.052;2024-03-17T10:16:22;98415.00;;;14.10
19040;BMP180;9652;49.014;12.052;2024-03-17T10:19:05;98422.00;;;14.10
19040;BMP180;9652;49.014;12.052;2024-03-17T10:21:33;98424.00;;;14.10
19040;BMP180;9652;49.014;12.052;2024-03-17T10:24:09;98336.00;;;14.10
19040;BMP180;9652;49.014;12.052;2024-03-17T10:26:38;98419.00;;;14.10
19040;BMP180;9652;49.014;12.052;2024-03-17T10:29:21;98404.00;;;14.20
19040;BMP180;9652;49.014;12.052;2024-03-17T10:31:51;98388.00;;;14.20
19040;BMP180;9652;49.014;12.052;2024-03-17T10:34:19;98408.00;;;14.00
19040;BMP180;9652;49.014;12.052;2024-03-17T10:36:51;98408.00;;;14.30
19040;BMP180;9652;49.014;12.052;2024-03-17T10:39:26;98365.00;;;14.30
19040;BMP180;9652;49.014;12.052;2024-03-17T10:41:57;98409.00;;;14.40
19040;BMP180;9652;49.014;12.052;2024-03-17T10:44:28;98411.00;;;14.40
19040;BMP180;9652;49.014;12.052;2024-03-17T10:46:57;98399.00;;;14.50
19040;BMP180;9652;49.014;12.052;2024-03-17T10:49:30;98396.00;;;14.60
19040;BMP180;9652;49.014;12.052;2024-03-17T10:52:00;98348.00;;;14.60
19040;BMP180;9652;49.014;12.052;2024-03-17T10:54:28;98419.00;;;14.70
19040;BMP180;9652;49.014;12.052;2024-03-17T10:56:57;98390.00;;;14.70
19040;BMP180;9652;49.014;12.052;2024-03-17T10:59:39;98394.00;;;14.70
19040;BMP180;9652;49.014;12.052;2024-03-17T11:02:22;98378.00;;;14.90
19040;BMP180;9652;49.014;12.052;2024-03-17T11:04:53;98407.00;;;14.90
19040;BMP180;9652;49.014;12.052;2024-03-17T11:07:22;98381.00;;;15.00
19040;BMP180;9652;49.014;12.052;2024-03-17T11:09:51;98384.00;;;15.00
19040;BMP180;9652;49.014;12.052;2024-03-17T11:12:42;98395.00;;;14.70
19040;BMP180;9652;49.014;12.052;2024-03-17T11:15:38;98373.00;;;15.20
19040;BMP180;9652;49.014;12.052;2024-03-17T11:18:42;98386.00;;;15.40
19040;BMP180;9652;49.014;12.052;2024-03-17T11:21:24;98381.00;;;15.50
19040;BMP180;9652;49.014;12.052;2024-03-17T11:24:02;98384.00;;;15.70
19040;BMP180;9652;49.014;12.052;2024-03-17T11:26:33;98428.00;;;15.90
19040;BMP180;9652;49.014;12.052;2024-03-17T11:29:01;98375.00;;;15.50
19040;BMP180;9652;49.014;12.052;2024-03-17T11:31:45;98391.00;;;16.10
19040;BMP180;9652;49.014;12.052;2024-03-17T11:34:35;98374.00;;;16.10
19040;BMP180;9652;49.014;12.052;2024-03-17T11:37:08;98384.00;;;16.20
19040;BMP180;9652;49.014;12.052;2024-03-17T11:39:55;98392.00;;;16.40
19040;BMP180;9652;49.014;12.052;2024-03-17T11:42:24;98388.00;;;16.10
19040;BMP180;9652;49.014;12.052;2024-03-17T11:45:05;98294.00;;;16.70
19040;BMP180;9652;49.014;12.052;2024-03-17T11:47:40;98319.00;;;16.90
19040;BMP180;9652;49.014;12.052;2024-03-17T11:50:09;98346.00;;;17.10
19040;BMP180;9652;49.014;12.052;2024-03-17T11:52:38;98308.00;;;17.30
19040;BMP180;9652;49.014;12.052;2024-03-17T11:55:16;98238.00;;;17.50
19040;BMP180;9652;49.014;12.052;2024-03-17T11:57:44;98390.00;;;17.80
19040;BMP180;9652;49.014;12.052;2024-03-17T12:00:21;98292.00;;;17.80
19040;BMP180;9652;49.014;12.052;2024-03-17T12:02:52;98368.00;;;18.00
19040;BMP180;9652;49.014;12.052;2024-03-17T12:05:18;98377.00;;;18.10
19040;BMP180;9652;49.014;12.052;2024-03-17T12:07:46;98348.00;;;18.20
19040;BMP180;9652;49.014;12.052;2024-03-17T12:10:13;98355.00;;;18.20
19040;BMP180;9652;49.014;12.052;2024-03-17T12:12:40;98326.00;;;18.20
19040;BMP180;9652;49.014;12.052;2024-03-17T12:15:18;98330.00;;;18.20
19040;BMP180;9652;49.014;12.052;2024-03-17T12:17:53;98340.00;;;18.10
19040;BMP180;9652;49.014;12.052;2024-03-17T12:20:21;98350.00;;;18.10
19040;BMP180;9652;49.014;12.052;2024-03-17T12:22:49;98342.00;;;18.00
19040;BMP180;9652;49.014;12.052;2024-03-17T12:25:19;98148.00;;;18.00
19040;BMP180;9652;49.014;12.052;2024-03-17T12:27:49;98289.00;;;17.90
19040;BMP180;9652;49.014;12.052;2024-03-17T12:30:16;98294.00;;;17.90
19040;BMP180;9652;49.014;12.052;2024-03-17T12:32:45;98313.00;;;17.90
19040;BMP180;9652;49.014;12.052;2024-03-17T12:35:16;98305.00;;;17.90
19040;BMP180;9652;49.014;12.052;2024-03-17T12:37:45;98304.00;;;18.00
19040;BMP180;9652;49.014;12.052;2024-03-17T12:40:22;98293.00;;;18.00
19040;BMP180;9652;49.014;12.052;2024-03-17T12:42:51;98309.00;;;18.10
19040;BMP180;9652;49.014;12.052;2024-03-17T12:45:21;98298.00;;;18.20
19040;BMP180;9652;49.014;12.052;2024-03-17T12:47:50;98297.00;;;18.30
19040;BMP180;9652;49.014;12.052;2024-03-17T12:50:18;98290.00;;;18.30
19040;BMP180;9652;49.014;12.052;2024-03-17T12:52:53;98294.00;;;18.40
19040;BMP180;9652;49.014;12.052;2024-03-17T12:55:22;98289.00;;;18.40
19040;BMP180;9652;49.014;12.052;2024-03-17T12:58:09;98293.00;;;18.60
19040;BMP180;9652;49.014;12.052;2024-03-17T13:00:59;98271.00;;;18.70
19040;BMP180;9652;49.014;12.052;2024-03-17T13:03:29;98283.00;;;18.80
19040;BMP180;9652;49.014;12.052;2024-03-17T13:05:59;98283.00;;;18.90
19040;BMP180;9652;49.014;12.052;2024-03-17T13:08:26;98281.00;;;18.90
19040;BMP180;9652;49.014;12.052;2024-03-17T13:10:54;98267.00;;;19.00
19040;BMP180;9652;49.014;12.052;2024-03-17T13:13:21;98274.00;;;19.00
19040;BMP180;9652;49.014;12.052;2024-03-17T13:15:48;98266.00;;;19.00
19040;BMP180;9652;49.014;12.052;2024-03-17T13:18:18;98280.00;;;19.10
19040;BMP180;9652;49.014;12.052;2024-03-17T13:20:46;98247.00;;;19.10
19040;BMP180;9652;49.014;12.052;2024-03-17T13:23:16;98256.00;;;19.20
19040;BMP180;9652;49.014;12.052;2024-03-17T13:25:44;98256.00;;;19.20
19040;BMP180;9652;49.014;12.052;2024-03-17T13:28:11;98264.00;;;19.30
19040;BMP180;9652;49.014;12.052;2024-03-17T13:30:38;98260.00;;;19.30
19040;BMP180;9652;49.014;12.052;2024-03-17T13:33:06;98260.00;;;19.30
19040;BMP180;9652;49.014;12.052;2024-03-17T13:35:38;98263.00;;;19.40
19040;BMP180;9652;49.014;12.052;2024-03-17T13:38:06;98236.00;;;19.30
19040;BMP180;9652;49.014;12.052;2024-03-17T13:40:36;98231.00;;;19.30
19040;BMP180;9652;49.014;12.052;2024-03-17T13:43:04;98251.00;;;19.30
19040;BMP180;9652;49.014;12.052;2024-03-17T13:45:39;98253.00;;;19.30
19040;BMP180;9652;49.014;12.052;2024-03-17T13:48:07;98263.00;;;19.20
19040;BMP180;9652;49.014;12.052;2024-03-17T13:50:36;98232.00;;;19.20
19040;BMP180;9652;49.014;12.052;2024-03-17T13:53:04;98267.00;;;19.20
19040;BMP180;9652;49.014;12.052;2024-03-17T13:55:32;98186.00;;;19.10
19040;BMP180;9652;49.014;12.052;2024-03-17T13:58:02;98233.00;;;19.10
19040;BMP180;9652;49.014;12.052;2024-03-17T14:00:31;98226.00;;;19.10
19040;BMP180;9652;49.014;12.052;2024-03-17T14:03:02;98233.00;;;19.10
19040;BMP180;9652;49.014;12.052;2024-03-17T14:05:29;98236.00;;;19.10
19040;BMP180;9652;49.014;12.052;2024-03-17T14:07:59;98236.00;;;19.10
19040;BMP180;9652;49.014;12.052;2024-03-17T14:10:27;98246.00;;;19.10
19040;BMP180;9652;49.014;12.052;2024-03-17T14:12:55;98237.00;;;19.10
19040;BMP180;9652;49.014;12.052;2024-03-17T14:15:24;98244.00;;;19.20
19040;BMP180;9652;49.014;12.052;2024-03-17T14:17:52;98241.00;;;19.20
19040;BMP180;9652;49.014;12.052;2024-03-17T14:20:19;98235.00;;;19.30
19040;BMP180;9652;49.014;12.052;2024-03-17T14:22:48;98227.00;;;19.40
19040;BMP180;9652;49.014;12.052;2024-03-17T14:25:19;98233.00;;;19.50
19040;BMP180;9652;49.014;12.052;2024-03-17T14:27:47;98230.00;;;19.60